Time;durP1;ratioP1;P1;durP2;ratioP2;P2;SDS_P1;SDS_P2;PMS_P1;PMS_P2;Temp;Humidity;BMP_temperature;BMP_pressure;BME280_temperature;BME280_humidity;BME280_pressure;Samples;Min_cycle;Max_cycle;Signal;HPM_P1;HPM_P2
2024/02/26 00:01:26;;;;;;;41.28;23.83;;;4.50;99.90;;;;;;5024600;28;20188;-64
2024/02/26 00:03:52;;;;;;;39.83;23.65;;;4.60;99.90;;;;;;5024264;28;20215;-64
2024/02/26 00:06:18;;;;;;;41.00;24.85;;;4.50;99.90;;;;;;5024821;28;20188;-64
2024/02/26 00:08:45;;;;;;;41.13;24.75;;;4.60;99.90;;;;;;5024630;28;20192;-63
2024/02/26 00:11:10;;;;;;;43.47;25.38;;;4.50;99.90;;;;;;5024588;28;20341;-63
2024/02/26 00:13:36;;;;;;;45.28;25.20;;;4.60;99.90;;;;;;5024205;28;20294;-62
2024/02/26 00:16:03;;;;;;;39.25;24.35;;;4.60;99.90;;;;;;5024289;28;20291;-64
2024/02/26 00:18:29;;;;;;;37.42;24.23;;;4.50;99.90;;;;;;5024405;28;20208;-63
2024/02/26 00:20:55;;;;;;;38.13;23.88;;;4.60;99.90;;;;;;5024304;28;20199;-62
2024/02/26 00:23:21;;;;;;;36.38;23.70;;;4.50;99.90;;;;;;5024090;28;20199;-62
2024/02/26 00:25:47;;;;;;;35.92;21.77;;;4.50;99.90;;;;;;5024553;28;20191;-63
2024/02/26 00:28:13;;;;;;;33.75;21.95;;;4.50;99.90;;;;;;5023982;28;20192;-63
2024/02/26 00:30:39;;;;;;;37.60;22.23;;;4.60;99.90;;;;;;5024013;28;20191;-64
2024/02/26 00:33:05;;;;;;;28.70;19.83;;;4.50;99.90;;;;;;5024208;28;20199;-61
2024/02/26 00:35:31;;;;;;;29.27;19.15;;;4.60;99.90;;;;;;5023546;28;20282;-62
2024/02/26 00:37:56;;;;;;;30.35;20.55;;;4.60;99.90;;;;;;5024274;28;20571;-64
2024/02/26 00:40:22;;;;;;;28.83;20.17;;;4.60;99.90;;;;;;5023762;28;20198;-63
2024/02/26 00:42:48;;;;;;;27.35;18.23;;;4.60;99.90;;;;;;5023680;28;20231;-64
2024/02/26 00:45:15;;;;;;;26.23;17.90;;;4.60;99.90;;;;;;5023971;28;20223;-62
2024/02/26 00:47:42;;;;;;;26.27;18.48;;;4.70;99.90;;;;;;5023701;28;20659;-63
2024/02/26 00:50:08;;;;;;;27.15;19.38;;;4.70;99.90;;;;;;5024420;28;20203;-64
2024/02/26 00:52:34;;;;;;;25.65;18.23;;;4.70;99.90;;;;;;5039088;28;20257;-64
2024/02/26 00:55:01;;;;;;;27.30;18.67;;;4.70;99.90;;;;;;5038574;28;20798;-62
2024/02/26 00:57:27;;;;;;;25.92;18.48;;;4.70;99.90;;;;;;5023834;28;20727;-60
2024/02/26 00:59:55;;;;;;;25.98;18.45;;;4.70;99.90;;;;;;5023614;28;20226;-63
2024/02/26 01:02:20;;;;;;;28.38;18.58;;;4.70;99.90;;;;;;5023509;28;20204;-64
2024/02/26 01:04:46;;;;;;;24.17;17.23;;;4.70;99.90;;;;;;5023217;28;20212;-64
2024/02/26 01:07:12;;;;;;;27.38;18.73;;;4.70;99.90;;;;;;5023758;28;20311;-63
2024/02/26 01:09:37;;;;;;;25.95;18.13;;;4.60;99.90;;;;;;5022852;28;20610;-63
2024/02/26 01:12:03;;;;;;;26.98;17.55;;;4.60;99.90;;;;;;5022916;28;20660;-62
2024/02/26 01:14:29;;;;;;;24.50;16.27;;;4.60;99.90;;;;;;5023184;28;20218;-62
2024/02/26 01:16:55;;;;;;;25.55;17.33;;;4.60;99.90;;;;;;5023306;28;20192;-64
2024/02/26 01:19:21;;;;;;;22.45;16.92;;;4.60;99.90;;;;;;5022371;28;20676;-62
2024/02/26 01:21:47;;;;;;;20.33;15.10;;;4.60;99.90;;;;;;5025912;28;20204;-65
2024/02/26 01:24:12;;;;;;;20.67;14.98;;;4.60;99.90;;;;;;5023412;28;20573;-64
2024/02/26 01:26:38;;;;;;;20.25;14.25;;;4.50;99.90;;;;;;5026295;28;20212;-64
2024/02/26 01:29:04;;;;;;;19.75;14.52;;;4.50;99.90;;;;;;5022942;28;20211;-63
2024/02/26 01:31:30;;;;;;;19.55;13.73;;;4.50;99.90;;;;;;5037978;28;20192;-62
2024/02/26 01:33:56;;;;;;;20.60;14.35;;;4.50;99.90;;;;;;5023000;28;20191;-63
2024/02/26 01:36:21;;;;;;;21.02;14.07;;;4.50;99.90;;;;;;5022763;28;20361;-64
2024/02/26 01:38:47;;;;;;;20.25;13.57;;;4.50;99.90;;;;;;5023002;28;20194;-64
2024/02/26 01:41:16;;;;;;;19.75;13.82;;;4.50;99.90;;;;;;5022529;28;20698;-63
2024/02/26 01:43:42;;;;;;;18.45;13.55;;;4.50;99.90;;;;;;5020931;28;20246;-62
2024/02/26 01:46:14;;;;;;;18.05;12.85;;;4.50;99.90;;;;;;5022715;28;20191;-63
2024/02/26 01:48:42;;;;;;;18.73;12.60;;;4.50;99.90;;;;;;5022688;28;20188;-64
2024/02/26 01:51:08;;;;;;;17.60;12.68;;;4.40;99.90;;;;;;5022676;28;20333;-64
2024/02/26 01:53:34;;;;;;;18.35;12.60;;;4.40;99.90;;;;;;5022977;28;20204;-63
2024/02/26 01:56:00;;;;;;;17.70;12.90;;;4.40;99.90;;;;;;5021913;28;20196;-61
2024/02/26 01:58:26;;;;;;;19.45;13.60;;;4.40;99.90;;;;;;5022756;28;20279;-63
2024/02/26 02:00:52;;;;;;;19.13;13.05;;;4.50;99.90;;;;;;5022542;28;20322;-63
2024/02/26 02:03:18;;;;;;;18.33;13.48;;;4.40;99.90;;;;;;5021957;28;20192;-64
2024/02/26 02:05:44;;;;;;;20.50;13.75;;;4.50;99.90;;;;;;5022103;28;20630;-63
2024/02/26 02:08:14;;;;;;;17.35;12.13;;;4.40;99.90;;;;;;5022588;28;20191;-62
2024/02/26 02:10:42;;;;;;;22.40;12.65;;;4.40;99.90;;;;;;5021000;28;20262;-62
2024/02/26 02:13:07;;;;;;;17.08;11.88;;;4.40;99.90;;;;;;5022440;28;20207;-61
2024/02/26 02:15:33;;;;;;;15.68;11.60;;;4.40;99.90;;;;;;5021973;28;20579;-64
2024/02/26 02:17:59;;;;;;;14.32;10.77;;;4.40;99.90;;;;;;5021893;28;20527;-63
2024/02/26 02:20:32;;;;;;;16.70;11.70;;;4.40;99.90;;;;;;5022964;28;20200;-63
2024/02/26 02:22:58;;;;;;;15.05;11.05;;;4.40;99.90;;;;;;5022336;28;20204;-63
2024/02/26 02:25:24;;;;;;;16.23;10.90;;;4.40;99.90;;;;;;5022946;28;20219;-63
2024/02/26 02:27:51;;;;;;;14.43;10.55;;;4.30;99.90;;;;;;5022126;28;20238;-61
2024/02/26 02:30:17;;;;;;;14.30;10.75;;;4.30;99.90;;;;;;5022108;28;20278;-62
2024/02/26 02:32:43;;;;;;;14.43;10.85;;;4.30;99.90;;;;;;5021618;28;20270;-63
2024/02/26 02:35:09;;;;;;;16.27;11.13;;;4.30;99.90;;;;;;5024280;28;20211;-62
2024/02/26 02:37:35;;;;;;;14.48;10.63;;;4.30;99.90;;;;;;5021399;28;20192;-63
2024/02/26 02:40:01;;;;;;;15.60;10.55;;;4.20;99.90;;;;;;5022073;28;20183;-63
2024/02/26 02:42:26;;;;;;;15.35;10.73;;;4.20;99.90;;;;;;5021829;28;20231;-63
2024/02/26 02:44:52;;;;;;;15.20;10.65;;;4.20;99.90;;;;;;5021234;28;20250;-64
2024/02/26 02:47:18;;;;;;;14.27;10.20;;;4.30;99.90;;;;;;5021844;28;20190;-63
2024/02/26 02:49:43;;;;;;;12.98;9.20;;;4.20;99.90;;;;;;5021762;28;20194;-64
2024/02/26 02:52:09;;;;;;;12.25;9.05;;;4.20;99.90;;;;;;5021669;28;20668;-64
2024/02/26 02:54:36;;;;;;;13.30;9.25;;;4.20;99.90;;;;;;5023937;28;20232;-63
2024/02/26 02:57:03;;;;;;;13.35;8.90;;;4.20;99.90;;;;;;5021537;28;20283;-64
2024/02/26 02:59:28;;;;;;;13.32;9.13;;;4.20;99.90;;;;;;5020257;28;20203;-64
2024/02/26 03:01:54;;;;;;;13.55;8.93;;;4.20;99.90;;;;;;5021353;28;20204;-63
2024/02/26 03:04:20;;;;;;;11.80;8.35;;;4.20;99.90;;;;;;5021394;28;20219;-64
2024/02/26 03:06:45;;;;;;;15.85;8.00;;;4.20;99.90;;;;;;5021648;28;20603;-63
2024/02/26 03:09:11;;;;;;;11.70;8.57;;;4.20;99.90;;;;;;5021223;28;20283;-65
2024/02/26 03:11:37;;;;;;;14.75;8.93;;;4.20;99.90;;;;;;5021479;28;20214;-62
2024/02/26 03:14:04;;;;;;;10.50;8.60;;;4.20;99.90;;;;;;5021251;28;20196;-63
2024/02/26 03:16:30;;;;;;;12.70;8.20;;;4.30;99.90;;;;;;5021913;28;20802;-63
2024/02/26 03:18:55;;;;;;;11.88;8.13;;;4.20;99.90;;;;;;5021123;28;20321;-64
2024/02/26 03:21:21;;;;;;;9.90;7.72;;;4.20;99.90;;;;;;5021155;28;20211;-62
2024/02/26 03:23:47;;;;;;;11.50;8.80;;;4.20;99.90;;;;;;5021557;28;20211;-62
2024/02/26 03:26:14;;;;;;;11.13;8.32;;;4.20;99.90;;;;;;5021420;28;20195;-62
2024/02/26 03:28:40;;;;;;;11.60;8.35;;;4.20;99.90;;;;;;5021503;28;20195;-62
2024/02/26 03:31:06;;;;;;;11.32;7.75;;;4.20;99.90;;;;;;5021367;28;20754;-63
2024/02/26 03:33:32;;;;;;;10.07;8.13;;;4.20;99.90;;;;;;5024232;28;20196;-64
2024/02/26 03:35:57;;;;;;;11.20;7.93;;;4.20;99.90;;;;;;5024763;28;20198;-63
2024/02/26 03:38:23;;;;;;;10.57;7.97;;;4.20;99.90;;;;;;5025076;28;20559;-63
2024/02/26 03:40:49;;;;;;;14.20;8.55;;;4.20;99.90;;;;;;5025262;28;20183;-62
2024/02/26 03:43:15;;;;;;;11.38;7.80;;;4.20;99.90;;;;;;5039996;28;20242;-62
2024/02/26 03:45:40;;;;;;;11.50;7.93;;;4.20;99.90;;;;;;5025420;28;20188;-63
2024/02/26 03:48:06;;;;;;;11.02;8.00;;;4.20;99.90;;;;;;5025032;28;20203;-63
2024/02/26 03:50:33;;;;;;;15.27;8.55;;;4.20;99.90;;;;;;5024846;28;20278;-62
2024/02/26 03:52:59;;;;;;;12.75;8.05;;;4.30;99.90;;;;;;5024964;28;20203;-63
2024/02/26 03:55:25;;;;;;;10.65;7.10;;;4.30;99.90;;;;;;5025007;28;20200;-63
2024/02/26 03:57:51;;;;;;;13.43;7.85;;;4.30;99.90;;;;;;5023586;28;20204;-64
2024/02/26 04:00:17;;;;;;;10.13;7.05;;;4.30;99.90;;;;;;5024415;28;20329;-62
2024/02/26 04:02:43;;;;;;;11.18;7.13;;;4.30;99.90;;;;;;5024323;28;20210;-64
2024/02/26 04:05:10;;;;;;;9.88;7.40;;;4.30;99.90;;;;;;5024798;28;20216;-63
2024/02/26 04:07:36;;;;;;;10.50;7.18;;;4.30;99.90;;;;;;5024810;28;20202;-65
2024/02/26 04:10:04;;;;;;;10.75;6.97;;;4.30;99.90;;;;;;5024710;28;20184;-63
2024/02/26 04:12:30;;;;;;;9.15;6.95;;;4.30;99.90;;;;;;5024253;28;20242;-65
2024/02/26 04:14:56;;;;;;;9.25;7.05;;;4.30;99.90;;;;;;5024783;28;20700;-63
2024/02/26 04:17:22;;;;;;;12.70;7.35;;;4.30;99.90;;;;;;5023705;28;20196;-63
2024/02/26 04:19:47;;;;;;;9.30;6.55;;;4.30;99.90;;;;;;5023986;28;21057;-65
2024/02/26 04:22:13;;;;;;;8.10;6.40;;;4.30;99.90;;;;;;5024491;28;20195;-63
2024/02/26 04:24:39;;;;;;;10.52;7.05;;;4.40;99.90;;;;;;5024601;28;20261;-63
2024/02/26 04:27:04;;;;;;;11.88;6.72;;;4.40;99.90;;;;;;5025277;28;20192;-64
2024/02/26 04:29:30;;;;;;;8.30;6.65;;;4.40;99.90;;;;;;5023941;28;20671;-64
2024/02/26 04:31:56;;;;;;;13.55;6.47;;;4.40;99.90;;;;;;5024557;28;20184;-64
2024/02/26 04:34:21;;;;;;;9.32;5.97;;;4.40;99.90;;;;;;5024171;28;20196;-64
2024/02/26 04:36:48;;;;;;;9.57;5.97;;;4.40;99.90;;;;;;5023986;28;20250;-64
2024/02/26 04:39:13;;;;;;;11.40;5.80;;;4.40;99.90;;;;;;5024076;28;20258;-63
2024/02/26 04:41:39;;;;;;;9.93;6.13;;;4.40;99.90;;;;;;5024271;28;20200;-64
2024/02/26 04:44:05;;;;;;;7.75;5.70;;;4.50;99.90;;;;;;5022445;28;20253;-62
2024/02/26 04:46:31;;;;;;;8.82;5.68;;;4.50;99.90;;;;;;5023885;28;20192;-63
2024/02/26 04:48:57;;;;;;;9.82;6.15;;;4.50;99.90;;;;;;5023620;28;20324;-61
2024/02/26 04:51:22;;;;;;;6.57;5.10;;;4.50;99.90;;;;;;5024349;28;20223;-62
2024/02/26 04:53:49;;;;;;;8.77;5.72;;;4.50;99.90;;;;;;5026931;28;20283;-63
2024/02/26 04:56:14;;;;;;;9.77;5.35;;;4.50;99.90;;;;;;5023893;28;20191;-64
2024/02/26 04:58:40;;;;;;;9.40;5.65;;;4.50;99.90;;;;;;5023581;28;20727;-63
2024/02/26 05:01:06;;;;;;;6.43;4.65;;;4.50;99.90;;;;;;5023950;28;20188;-63
2024/02/26 05:03:31;;;;;;;6.93;5.25;;;4.50;99.90;;;;;;5023148;28;20279;-63
2024/02/26 05:05:58;;;;;;;7.05;4.60;;;4.50;99.90;;;;;;5024842;28;20191;-63
2024/02/26 05:08:23;;;;;;;7.53;4.93;;;4.60;99.90;;;;;;5023574;28;20196;-63
2024/02/26 05:10:49;;;;;;;10.05;4.63;;;4.60;99.90;;;;;;5023676;28;20408;-63
2024/02/26 05:13:17;;;;;;;7.35;4.47;;;4.60;99.90;;;;;;5023555;28;20203;-63
2024/02/26 05:15:44;;;;;;;7.95;4.82;;;4.60;99.90;;;;;;5023510;28;20269;-63
2024/02/26 05:18:10;;;;;;;7.72;4.35;;;4.60;99.90;;;;;;5023293;28;21043;-63
2024/02/26 05:20:37;;;;;;;9.63;4.43;;;4.60;99.90;;;;;;5023166;28;20238;-61
2024/02/26 05:23:03;;;;;;;10.18;4.63;;;4.60;99.90;;;;;;5023257;28;20184;-64
2024/02/26 05:25:30;;;;;;;7.38;4.32;;;4.60;99.90;;;;;;5023127;28;20223;-61
2024/02/26 05:27:55;;;;;;;6.85;4.30;;;4.60;99.90;;;;;;5023461;28;20242;-64
2024/02/26 05:30:21;;;;;;;7.30;4.00;;;4.60;99.90;;;;;;5023275;28;20574;-65
2024/02/26 05:32:47;;;;;;;5.93;4.28;;;4.60;99.90;;;;;;5023090;28;20191;-64
2024/02/26 05:35:13;;;;;;;5.85;4.18;;;4.70;99.90;;;;;;5023391;28;20230;-64
2024/02/26 05:37:38;;;;;;;7.40;4.32;;;4.70;99.90;;;;;;5022859;28;20219;-64
2024/02/26 05:40:06;;;;;;;6.78;4.63;;;4.70;99.90;;;;;;5021976;28;20188;-63
2024/02/26 05:42:31;;;;;;;6.05;3.97;;;4.70;99.90;;;;;;5037941;28;20629;-62
2024/02/26 05:44:57;;;;;;;7.28;4.43;;;4.70;99.90;;;;;;5022849;28;20262;-63
2024/02/26 05:47:23;;;;;;;5.93;4.22;;;4.70;99.90;;;;;;5022518;28;20188;-64
2024/02/26 05:49:49;;;;;;;4.88;3.95;;;4.70;99.90;;;;;;5022531;28;20645;-63
2024/02/26 05:52:14;;;;;;;4.53;4.03;;;4.70;99.90;;;;;;5022641;28;20744;-63
2024/02/26 05:54:40;;;;;;;4.85;3.80;;;4.80;99.90;;;;;;5022162;28;20194;-62
2024/02/26 05:57:06;;;;;;;6.13;3.70;;;4.80;99.90;;;;;;5022669;28;20616;-64
2024/02/26 05:59:31;;;;;;;6.15;4.40;;;4.80;99.90;;;;;;5022453;28;20271;-64
2024/02/26 06:01:57;;;;;;;5.60;3.85;;;4.80;99.90;;;;;;5021466;28;20192;-63
2024/02/26 06:04:23;;;;;;;5.75;3.80;;;4.80;99.90;;;;;;5022345;28;20230;-63
2024/02/26 06:06:49;;;;;;;5.05;3.72;;;4.80;99.90;;;;;;5022419;28;20198;-62
2024/02/26 06:09:15;;;;;;;4.60;3.55;;;4.80;99.90;;;;;;5022361;28;20200;-63
2024/02/26 06:11:40;;;;;;;4.15;3.60;;;4.80;99.90;;;;;;5022331;28;20196;-65
2024/02/26 06:14:06;;;;;;;4.20;3.80;;;4.80;99.90;;;;;;5021938;28;20233;-64
2024/02/26 06:16:32;;;;;;;7.53;4.20;;;4.80;99.90;;;;;;5022182;28;20203;-63
2024/02/26 06:19:00;;;;;;;5.82;3.88;;;4.90;99.90;;;;;;5022085;28;20203;-63
2024/02/26 06:21:26;;;;;;;6.28;4.22;;;4.90;99.90;;;;;;5022443;28;20681;-63
2024/02/26 06:23:51;;;;;;;4.75;3.63;;;4.90;99.90;;;;;;5022112;28;20302;-63
2024/02/26 06:26:17;;;;;;;6.05;4.60;;;4.90;99.90;;;;;;5021746;28;20275;-63
2024/02/26 06:28:43;;;;;;;5.05;4.15;;;4.90;99.90;;;;;;5022056;28;20184;-64
2024/02/26 06:31:09;;;;;;;9.43;5.72;;;4.90;99.90;;;;;;5022212;28;20184;-63
2024/02/26 06:33:34;;;;;;;13.23;7.22;;;4.90;99.90;;;;;;5022013;28;20703;-64
2024/02/26 06:36:01;;;;;;;19.90;10.93;;;4.90;99.90;;;;;;5021303;28;20180;-64
2024/02/26 06:38:26;;;;;;;17.88;9.95;;;4.90;99.90;;;;;;5021508;28;20194;-64
2024/02/26 06:40:52;;;;;;;7.13;4.65;;;4.90;99.90;;;;;;5022241;28;20278;-63
2024/02/26 06:43:18;;;;;;;8.60;4.68;;;5.00;99.90;;;;;;5021408;28;20230;-62
2024/02/26 06:45:43;;;;;;;7.07;5.07;;;5.00;99.90;;;;;;5021337;28;20303;-63
2024/02/26 06:48:09;;;;;;;6.07;4.78;;;5.00;99.90;;;;;;5021896;28;20179;-64
2024/02/26 06:50:35;;;;;;;5.40;4.40;;;5.00;99.90;;;;;;5021785;28;20195;-63
2024/02/26 06:53:01;;;;;;;9.45;5.88;;;5.00;99.90;;;;;;5021594;28;20209;-62
2024/02/26 06:55:26;;;;;;;8.50;5.57;;;5.10;99.90;;;;;;5021557;28;20188;-63
2024/02/26 06:57:52;;;;;;;7.50;5.45;;;5.10;99.90;;;;;;5021644;28;20253;-64
2024/02/26 07:00:18;;;;;;;7.30;4.82;;;5.10;99.90;;;;;;5021633;28;20195;-63
2024/02/26 07:02:44;;;;;;;9.77;5.10;;;5.10;99.90;;;;;;5021275;28;20214;-63
2024/02/26 07:05:10;;;;;;;9.20;5.60;;;5.20;99.90;;;;;;5021763;28;20578;-63
2024/02/26 07:07:36;;;;;;;11.30;7.13;;;5.20;99.90;;;;;;5020559;28;20252;-64
2024/02/26 07:10:03;;;;;;;7.00;5.00;;;5.20;99.90;;;;;;5021704;28;20654;-64
2024/02/26 07:12:30;;;;;;;8.07;4.43;;;5.30;99.90;;;;;;5021196;28;20218;-63
2024/02/26 07:14:56;;;;;;;6.22;3.97;;;5.30;99.90;;;;;;5021504;28;20291;-64
2024/02/26 07:17:21;;;;;;;7.07;4.28;;;5.30;99.90;;;;;;5021499;28;20271;-64
2024/02/26 07:19:47;;;;;;;6.72;4.63;;;5.30;99.90;;;;;;5020739;28;20242;-62
2024/02/26 07:22:13;;;;;;;5.97;3.90;;;5.30;99.90;;;;;;5020956;28;21982;-63
2024/02/26 07:24:39;;;;;;;7.95;5.20;;;5.30;99.90;;;;;;5020196;28;20208;-62
2024/02/26 07:27:05;;;;;;;8.25;4.85;;;5.30;99.90;;;;;;5021097;28;20306;-64
2024/02/26 07:29:31;;;;;;;5.18;4.10;;;5.40;99.90;;;;;;5021125;28;20708;-62
2024/02/26 07:31:57;;;;;;;8.98;4.70;;;5.40;99.90;;;;;;5020973;28;20192;-63
2024/02/26 07:34:27;;;;;;;4.82;3.60;;;5.40;99.90;;;;;;5021443;28;20226;-67
2024/02/26 07:36:53;;;;;;;6.32;4.47;;;5.40;99.90;;;;;;5020279;28;20555;-63
2024/02/26 07:39:19;;;;;;;6.18;4.15;;;5.40;99.90;;;;;;5021363;28;20246;-63
2024/02/26 07:41:48;;;;;;;5.18;3.92;;;5.40;99.90;;;;;;5021304;28;20200;-63
2024/02/26 07:44:14;;;;;;;5.80;3.40;;;5.40;99.90;;;;;;5020777;28;20235;-63
2024/02/26 07:46:39;;;;;;;4.43;2.95;;;5.50;99.90;;;;;;5020537;28;20254;-65
2024/02/26 07:49:05;;;;;;;4.35;3.33;;;5.50;99.90;;;;;;5020991;28;20568;-64
2024/02/26 07:51:31;;;;;;;6.60;3.20;;;5.50;99.90;;;;;;5020422;28;20192;-64
2024/02/26 07:53:56;;;;;;;6.63;3.20;;;5.50;99.90;;;;;;5021102;28;20546;-64
2024/02/26 07:56:22;;;;;;;4.95;3.10;;;5.50;99.90;;;;;;5020552;28;20220;-61
2024/02/26 07:58:48;;;;;;;5.57;2.92;;;5.50;99.90;;;;;;5019441;28;20196;-64
2024/02/26 08:01:14;;;;;;;4.53;3.50;;;5.60;99.90;;;;;;5020463;28;20200;-63
2024/02/26 08:03:40;;;;;;;4.10;3.25;;;5.60;99.90;;;;;;5020193;28;20192;-63
2024/02/26 08:06:07;;;;;;;4.30;3.08;;;5.60;99.90;;;;;;5020286;28;20198;-65
2024/02/26 08:08:33;;;;;;;3.45;2.72;;;5.70;99.90;;;;;;5020632;28;20196;-65
2024/02/26 08:10:59;;;;;;;6.07;3.10;;;5.60;99.90;;;;;;5021393;28;20211;-68
2024/02/26 08:13:26;;;;;;;3.83;3.20;;;5.70;99.90;;;;;;5019440;28;20323;-69
2024/02/26 08:15:51;;;;;;;4.85;2.85;;;5.70;99.90;;;;;;5022236;28;20722;-68
2024/02/26 08:18:17;;;;;;;3.33;2.50;;;5.70;99.90;;;;;;5023444;28;20274;-69
2024/02/26 08:20:43;;;;;;;3.22;2.50;;;5.80;99.90;;;;;;5022673;28;21435;-65
2024/02/26 08:23:09;;;;;;;4.78;2.60;;;5.80;99.90;;;;;;5038954;28;20570;-70
2024/02/26 08:25:34;;;;;;;4.03;2.58;;;5.80;99.90;;;;;;5023697;28;20220;-67
2024/02/26 08:28:00;;;;;;;3.67;2.50;;;5.80;99.90;;;;;;5024277;28;20200;-66
2024/02/26 08:30:26;;;;;;;3.90;2.15;;;5.80;99.90;;;;;;5023423;28;20211;-71
2024/02/26 08:32:52;;;;;;;3.75;2.58;;;5.90;99.90;;;;;;5022428;28;20238;-68
2024/02/26 08:35:18;;;;;;;2.65;2.33;;;5.90;99.90;;;;;;5023664;28;20656;-67
2024/02/26 08:37:45;;;;;;;3.55;2.47;;;5.90;99.90;;;;;;5022070;28;20208;-68
2024/02/26 08:40:11;;;;;;;3.17;2.40;;;6.00;99.90;;;;;;5023472;28;20724;-69
2024/02/26 08:42:37;;;;;;;3.00;2.20;;;6.00;99.90;;;;;;5022999;28;20239;-69
2024/02/26 08:45:03;;;;;;;3.17;2.50;;;6.00;99.90;;;;;;5022641;28;20216;-69
2024/02/26 08:47:29;;;;;;;4.18;2.80;;;6.00;99.90;;;;;;5023372;28;20199;-65
2024/02/26 08:49:54;;;;;;;4.03;2.30;;;6.10;99.90;;;;;;5023569;28;20559;-66
2024/02/26 08:52:21;;;;;;;3.33;2.53;;;6.10;99.90;;;;;;5023826;28;20234;-66
2024/02/26 08:54:47;;;;;;;5.70;2.75;;;6.10;99.90;;;;;;5023918;28;20202;-64
2024/02/26 08:57:13;;;;;;;5.03;2.60;;;6.10;99.90;;;;;;5022253;28;20195;-63
2024/02/26 08:59:39;;;;;;;3.28;2.28;;;6.10;99.90;;;;;;5023438;28;20283;-64
2024/02/26 09:02:04;;;;;;;4.88;2.50;;;6.20;99.90;;;;;;5022851;28;20200;-65
2024/02/26 09:04:30;;;;;;;3.60;2.42;;;6.20;99.90;;;;;;5025473;28;20679;-66
2024/02/26 09:06:56;;;;;;;3.65;2.40;;;6.20;99.90;;;;;;5023052;28;20196;-64
2024/02/26 09:09:22;;;;;;;3.25;2.60;;;6.30;99.90;;;;;;5023426;28;20203;-63
2024/02/26 09:11:51;;;;;;;4.53;2.70;;;6.30;99.90;;;;;;5023815;28;20241;-64
2024/02/26 09:14:18;;;;;;;4.35;2.83;;;6.30;99.90;;;;;;5022444;28;20206;-64
2024/02/26 09:16:44;;;;;;;4.75;2.80;;;6.40;99.90;;;;;;5022862;28;20214;-63
2024/02/26 09:19:09;;;;;;;4.72;2.55;;;6.50;99.90;;;;;;5023526;28;20188;-63
2024/02/26 09:21:35;;;;;;;4.32;2.70;;;6.50;99.90;;;;;;5023161;28;20214;-62
2024/02/26 09:24:01;;;;;;;4.07;2.70;;;6.50;99.90;;;;;;5023168;28;20207;-63
2024/02/26 09:26:26;;;;;;;2.95;2.40;;;6.50;99.90;;;;;;5022351;28;20187;-64
2024/02/26 09:28:52;;;;;;;4.20;2.40;;;6.60;99.90;;;;;;5022840;28;20198;-66
2024/02/26 09:31:18;;;;;;;5.28;3.28;;;6.60;99.90;;;;;;5022715;28;20191;-64
2024/02/26 09:33:44;;;;;;;4.20;2.80;;;6.60;99.90;;;;;;5021570;28;20215;-66
2024/02/26 09:36:10;;;;;;;4.45;3.05;;;6.60;99.90;;;;;;5022916;28;20287;-65
2024/02/26 09:38:38;;;;;;;6.50;3.42;;;6.60;99.90;;;;;;5022597;28;20249;-61
2024/02/26 09:41:12;;;;;;;5.43;2.80;;;6.60;99.90;;;;;;5022553;28;20211;-64
2024/02/26 09:43:42;;;;;;;4.28;2.60;;;6.60;99.90;;;;;;5021930;28;20259;-66
2024/02/26 09:46:08;;;;;;;3.67;2.78;;;6.70;99.90;;;;;;5022511;28;20200;-63
2024/02/26 09:48:35;;;;;;;4.93;2.90;;;6.70;99.90;;;;;;5022462;28;20188;-65
2024/02/26 09:51:03;;;;;;;5.07;2.90;;;6.70;99.90;;;;;;5022168;28;20232;-64
2024/02/26 09:53:33;;;;;;;5.55;2.90;;;6.70;99.90;;;;;;5022621;28;20694;-64
2024/02/26 09:55:59;;;;;;;5.88;3.10;;;6.80;99.90;;;;;;5022487;28;20199;-64
2024/02/26 09:58:30;;;;;;;5.22;3.13;;;6.80;99.90;;;;;;5022462;28;20211;-65
2024/02/26 10:01:02;;;;;;;3.80;3.10;;;6.90;99.90;;;;;;5021638;28;20200;-63
2024/02/26 10:03:37;;;;;;;7.32;4.45;;;6.90;99.90;;;;;;5021725;28;20734;-64
2024/02/26 10:06:05;;;;;;;4.60;2.22;;;6.90;99.90;;;;;;5022117;28;20195;-63
2024/02/26 10:08:32;;;;;;;4.93;2.70;;;7.00;99.90;;;;;;5036825;28;20271;-63
2024/02/26 10:10:58;;;;;;;4.18;2.40;;;7.00;99.90;;;;;;5021462;28;20183;-62
2024/02/26 10:13:24;;;;;;;2.90;2.03;;;7.00;99.90;;;;;;5021806;28;20954;-65
2024/02/26 10:15:49;;;;;;;4.05;2.53;;;7.10;99.90;;;;;;5021650;28;20279;-66
2024/02/26 10:18:15;;;;;;;2.88;2.30;;;7.20;99.90;;;;;;5022214;28;20191;-65
2024/02/26 10:20:41;;;;;;;2.70;2.20;;;7.20;99.90;;;;;;5037350;28;20286;-63
2024/02/26 10:23:07;;;;;;;4.82;1.88;;;7.20;99.90;;;;;;5021616;28;20601;-71
2024/02/26 10:25:32;;;;;;;2.85;1.92;;;7.20;99.90;;;;;;5020837;28;20220;-65
2024/02/26 10:28:02;;;;;;;3.95;2.30;;;7.20;99.90;;;;;;5022025;28;20329;-68
2024/02/26 10:30:28;;;;;;;2.58;2.30;;;7.20;99.90;;;;;;5021627;28;20202;-68
2024/02/26 10:32:54;;;;;;;5.97;2.90;;;7.20;99.90;;;;;;5021201;28;20191;-68
2024/02/26 10:35:20;;;;;;;7.55;2.45;;;7.30;99.90;;;;;;5021200;28;20187;-72
2024/02/26 10:37:47;;;;;;;4.38;2.80;;;7.30;99.90;;;;;;5022432;28;20660;-71
2024/02/26 10:40:14;;;;;;;4.03;2.97;;;7.30;99.90;;;;;;5023034;28;20208;-67
2024/02/26 10:42:40;;;;;;;3.92;2.88;;;7.30;99.90;;;;;;5020609;28;20227;-68
2024/02/26 10:45:08;;;;;;;4.88;2.80;;;7.30;99.90;;;;;;5021268;28;20774;-64
2024/02/26 10:47:38;;;;;;;3.13;2.20;;;7.30;99.90;;;;;;5020604;28;20645;-65
2024/02/26 10:50:05;;;;;;;4.10;2.15;;;7.30;99.90;;;;;;5020275;28;20980;-63
2024/02/26 10:52:36;;;;;;;4.55;2.47;;;7.30;99.90;;;;;;5020561;28;20742;-64
2024/02/26 10:55:03;;;;;;;5.43;2.05;;;7.30;99.90;;;;;;5019560;28;20207;-64
2024/02/26 10:57:34;;;;;;;3.15;2.30;;;7.30;99.90;;;;;;5020697;28;20196;-67
2024/02/26 11:00:04;;;;;;;3.97;2.22;;;7.30;99.90;;;;;;5020202;28;20386;-62
2024/02/26 11:02:33;;;;;;;3.00;2.33;;;7.30;99.90;;;;;;5020951;28;20227;-66
2024/02/26 11:05:00;;;;;;;3.70;2.42;;;7.40;99.90;;;;;;5021689;28;20211;-64
2024/02/26 11:07:27;;;;;;;5.45;3.00;;;7.50;99.90;;;;;;5021744;28;20227;-65
2024/02/26 11:09:54;;;;;;;4.47;2.45;;;7.50;99.90;;;;;;5021163;28;20195;-65
2024/02/26 11:12:21;;;;;;;5.15;2.35;;;7.40;99.90;;;;;;5021378;28;20628;-64
2024/02/26 11:14:47;;;;;;;4.32;2.88;;;7.50;99.90;;;;;;5020714;28;20199;-63
2024/02/26 11:17:16;;;;;;;3.97;2.80;;;7.50;99.90;;;;;;5021472;28;20194;-65
2024/02/26 11:19:44;;;;;;;2.80;2.50;;;7.50;99.90;;;;;;5020494;28;20284;-64
2024/02/26 11:22:10;;;;;;;6.53;3.05;;;7.50;99.90;;;;;;5021185;28;20199;-61
2024/02/26 11:24:41;;;;;;;6.53;3.13;;;7.50;99.90;;;;;;5020620;28;21127;-64
2024/02/26 11:27:09;;;;;;;3.67;3.30;;;7.50;99.90;;;;;;5020574;28;20195;-64
2024/02/26 11:29:41;;;;;;;5.30;3.25;;;7.60;99.90;;;;;;5020858;28;20537;-66
2024/02/26 11:32:07;;;;;;;5.72;3.47;;;7.60;99.90;;;;;;5034831;28;20203;-64
2024/02/26 11:34:33;;;;;;;4.63;3.70;;;7.60;99.90;;;;;;5020201;28;20209;-63
2024/02/26 11:37:13;;;;;;;6.88;4.05;;;7.60;99.90;;;;;;5020948;28;20233;-66
2024/02/26 11:39:42;;;;;;;5.97;3.60;;;7.70;99.90;;;;;;5018836;28;20567;-68
2024/02/26 11:42:09;;;;;;;8.80;4.20;;;7.70;99.90;;;;;;5020806;28;20200;-68
2024/02/26 11:44:38;;;;;;;7.03;3.72;;;7.70;99.90;;;;;;5020476;28;20788;-69
2024/02/26 11:47:20;;;;;;;6.78;4.00;;;7.70;99.90;;;;;;5020804;28;20191;-70
2024/02/26 11:49:46;;;;;;;4.43;3.97;;;7.70;99.90;;;;;;5020128;28;20192;-68
2024/02/26 11:52:13;;;;;;;6.63;3.85;;;7.80;99.90;;;;;;5020669;28;20187;-70
2024/02/26 11:54:45;;;;;;;6.28;4.45;;;7.80;99.90;;;;;;5023707;28;20191;-69
2024/02/26 11:57:29;;;;;;;6.75;4.53;;;7.80;99.90;;;;;;5039703;28;20206;-66
2024/02/26 12:00:07;;;;;;;5.65;4.32;;;7.80;99.90;;;;;;4990877;28;20751;-64
2024/02/26 12:02:59;;;;;;;6.32;3.97;;;8.00;99.90;;;;;;5024631;28;20210;-64
2024/02/26 12:05:26;;;;;;;7.05;4.80;;;8.00;99.90;;;;;;5022663;28;20252;-64
2024/02/26 12:08:06;;;;;;;6.65;4.30;;;7.90;99.90;;;;;;5039334;28;20194;-64
2024/02/26 12:10:38;;;;;;;7.57;4.55;;;7.90;99.90;;;;;;5024486;28;20648;-66
2024/02/26 12:13:14;;;;;;;10.05;5.20;;;7.90;99.90;;;;;;5023956;28;20723;-65
2024/02/26 12:15:45;;;;;;;9.68;5.50;;;7.90;99.90;;;;;;5023831;28;20210;-63
2024/02/26 12:18:17;;;;;;;9.43;5.32;;;8.00;99.90;;;;;;5023805;28;20188;-66
2024/02/26 12:20:49;;;;;;;7.03;4.65;;;8.00;99.90;;;;;;5024031;28;20191;-65
2024/02/26 12:23:18;;;;;;;12.80;5.10;;;8.10;99.90;;;;;;5023720;28;20192;-65
2024/02/26 12:25:44;;;;;;;8.40;5.32;;;7.90;99.90;;;;;;5023462;28;20745;-65
2024/02/26 12:28:10;;;;;;;10.35;5.10;;;7.80;99.90;;;;;;5022407;28;20687;-64
2024/02/26 12:30:35;;;;;;;6.90;4.90;;;7.70;99.90;;;;;;5023843;28;20227;-64
2024/02/26 12:33:02;;;;;;;8.15;5.32;;;7.70;99.90;;;;;;5034849;28;20191;-66
2024/02/26 12:35:31;;;;;;;8.27;5.03;;;7.70;99.90;;;;;;5023837;28;20261;-65
2024/02/26 12:37:58;;;;;;;7.57;5.03;;;7.70;99.90;;;;;;5024327;28;20207;-64
2024/02/26 12:40:24;;;;;;;9.40;5.60;;;7.60;99.90;;;;;;5019945;28;20545;-63
2024/02/26 12:42:50;;;;;;;6.40;4.38;;;7.50;99.90;;;;;;5023749;28;20283;-65
2024/02/26 12:45:16;;;;;;;10.27;6.13;;;7.50;99.90;;;;;;5022993;28;20259;-66
2024/02/26 12:47:42;;;;;;;9.85;6.20;;;7.50;99.90;;;;;;5023276;28;20192;-66